createdAt,value
2022-09-15T00:02:11.321Z,93967.19
2022-09-15T00:07:13.406Z,93962.91
2022-09-15T00:12:15.414Z,93964.06
2022-09-15T00:17:17.449Z,93958.63
2022-09-15T00:22:20.326Z,93959.78
2022-09-15T00:27:22.301Z,93956.28
2022-09-15T00:32:24.125Z,93949.31
2022-09-15T00:37:26.069Z,93946.56
2022-09-15T00:42:27.993Z,93952.72
2022-09-15T00:47:38.395Z,93946.56
2022-09-15T00:52:50.493Z,93944.63
2022-09-15T01:05:08.885Z,93942.66
2022-09-15T01:10:18.378Z,93905.88
2022-09-15T01:15:21.916Z,93943.72
2022-09-15T01:21:28.228Z,93937.97
2022-09-15T01:26:54.478Z,93911.66
2022-09-15T01:32:24.985Z,93933.69
2022-09-15T01:37:33.079Z,93908.53
2022-09-15T01:42:35.141Z,93920.16
2022-09-15T01:47:37.664Z,93938.00
2022-09-15T01:52:45.408Z,93929.50
2022-09-15T01:57:47.421Z,93923.72
2022-09-15T02:02:59.606Z,93936.88
2022-09-15T02:08:06.312Z,93900.84
2022-09-15T02:13:36.103Z,93932.94
2022-09-15T02:18:40.192Z,93936.06
2022-09-15T02:23:47.583Z,93921.75
2022-09-15T02:28:50.053Z,93924.03
2022-09-15T02:33:57.509Z,93917.53
2022-09-15T02:39:08.891Z,93920.66
2022-09-15T02:44:10.900Z,93913.72
2022-09-15T02:49:13.392Z,93890.88
2022-09-15T02:54:15.515Z,93903.25
2022-09-15T02:59:17.445Z,93880.41
2022-09-15T03:04:19.578Z,93912.94
2022-09-15T03:09:21.425Z,93903.28
2022-09-15T03:14:24.168Z,93895.94
2022-09-15T03:19:26.295Z,93899.44
2022-09-15T03:24:28.324Z,93898.66
2022-09-15T03:29:31.118Z,93914.91
2022-09-15T03:34:32.974Z,93913.72
2022-09-15T03:39:35.017Z,93918.38
2022-09-15T03:44:37.000Z,93920.31
2022-09-15T03:49:38.974Z,93922.22
2022-09-15T03:54:40.965Z,93915.31
2022-09-15T03:59:42.870Z,93913.34
2022-09-15T04:04:44.940Z,93917.59
2022-09-15T04:09:46.996Z,93920.69
2022-09-15T04:14:48.829Z,93884.28
2022-09-15T04:19:50.937Z,93893.19
2022-09-15T04:24:53.070Z,93923.38
2022-09-15T04:29:55.188Z,93924.91
2022-09-15T04:34:57.132Z,93924.53
2022-09-15T04:39:59.357Z,93927.59
2022-09-15T04:45:01.753Z,93924.84
2022-09-15T04:50:04.304Z,93919.84
2022-09-15T04:55:06.302Z,93922.13
2022-09-15T05:00:09.015Z,93887.72
2022-09-15T05:05:10.976Z,93924.06
2022-09-15T05:10:13.246Z,93924.84
2022-09-15T05:15:15.317Z,93928.31
2022-09-15T05:27:32.860Z,93942.59
2022-09-15T05:32:34.773Z,93941.03
2022-09-15T05:37:36.727Z,93933.72
2022-09-15T05:42:38.702Z,93953.06
2022-09-15T05:47:40.755Z,93955.34
2022-09-15T05:52:43.259Z,93954.56
2022-09-15T05:57:45.916Z,93957.25
2022-09-15T06:02:48.187Z,93970.41
2022-09-15T06:07:54.081Z,93968.03
2022-09-15T06:12:57.065Z,93972.31
2022-09-15T06:17:59.102Z,93975.03
2022-09-15T06:23:01.094Z,93988.19
2022-09-15T06:28:03.085Z,93966.84
2022-09-15T06:33:04.975Z,93994.28
2022-09-15T06:39:16.770Z,94007.44
2022-09-15T06:44:22.019Z,94014.75
2022-09-15T06:56:19.079Z,94025.06
2022-09-15T07:01:26.722Z,94008.53
2022-09-15T07:06:30.037Z,94045.00
2022-09-15T07:11:32.760Z,94051.31
2022-09-15T07:16:34.828Z,94045.84
2022-09-15T07:21:37.402Z,94031.59
2022-09-15T07:26:39.820Z,94044.75
2022-09-15T07:31:42.624Z,94050.78
2022-09-15T07:36:45.030Z,94049.06
2022-09-15T07:41:47.561Z,94056.81
2022-09-15T07:46:49.490Z,94063.66
2022-09-15T07:51:51.407Z,94069.00
2022-09-15T07:56:53.676Z,94074.44
2022-09-15T08:01:55.850Z,94057.72
2022-09-15T08:06:58.443Z,94096.22
2022-09-15T08:12:00.472Z,94102.09
2022-09-15T08:17:09.397Z,94115.56
2022-09-15T08:22:14.320Z,94121.75
2022-09-15T08:27:16.450Z,94113.63
2022-09-15T08:39:43.339Z,94119.91
2022-09-15T08:44:57.807Z,94113.88
2022-09-15T08:50:08.219Z,94124.09
2022-09-15T08:55:38.369Z,94124.00
2022-09-15T09:00:41.420Z,94125.97
2022-09-15T09:05:48.012Z,94129.22
2022-09-15T09:10:50.170Z,94110.84
2022-09-15T09:16:07.001Z,94146.16
2022-09-15T09:21:12.169Z,94132.31
2022-09-15T09:26:15.757Z,94143.34
2022-09-15T09:31:21.915Z,94141.50
2022-09-15T09:36:23.928Z,94146.16
2022-09-15T09:41:35.851Z,94109.38
2022-09-15T09:46:38.093Z,94115.13
2022-09-15T09:52:00.181Z,94129.22
2022-09-15T09:57:14.512Z,94135.41
2022-09-15T10:02:16.466Z,94126.94
2022-09-15T10:07:21.958Z,94098.84
2022-09-15T10:12:36.595Z,94113.44
2022-09-15T10:17:41.485Z,94116.22
2022-09-15T10:22:43.944Z,94119.00
2022-09-15T10:28:25.903Z,94118.56
2022-09-15T10:33:36.090Z,94117.78
2022-09-15T10:38:39.404Z,94087.13
2022-09-15T10:44:12.136Z,94096.00
2022-09-15T10:49:26.165Z,94091.84
2022-09-15T10:55:01.307Z,94098.03
2022-09-15T11:00:04.554Z,94087.66
2022-09-15T11:05:25.205Z,94098.75
2022-09-15T11:10:57.063Z,94095.41
2022-09-15T11:16:14.147Z,94091.69
2022-09-15T11:21:41.310Z,94054.31
2022-09-15T11:26:51.321Z,94086.72
2022-09-15T11:31:59.791Z,94078.06
2022-09-15T11:37:15.379Z,94074.81
2022-09-15T11:42:27.579Z,94074.59
2022-09-15T11:47:38.908Z,94049.91
2022-09-15T11:53:08.561Z,94073.91
2022-09-15T11:58:22.573Z,94063.50
2022-09-15T12:03:31.652Z,94050.22
2022-09-15T12:09:05.203Z,94047.84
2022-09-15T12:14:15.107Z,94023.47
2022-09-15T12:19:22.390Z,94035.84
2022-09-15T12:24:24.260Z,94043.91
2022-09-15T12:29:26.287Z,94039.59
2022-09-15T12:34:38.924Z,94041.53
2022-09-15T12:39:46.733Z,94035.97
2022-09-15T12:45:01.445Z,94032.56
2022-09-15T12:50:09.158Z,94024.38
2022-09-15T12:55:21.390Z,94020.03
2022-09-15T13:00:23.559Z,94000.38
2022-09-15T13:12:38.509Z,93974.28
2022-09-15T13:17:45.053Z,93974.63
2022-09-15T13:22:50.994Z,93963.44
2022-09-15T13:28:03.561Z,93975.31
2022-09-15T13:33:13.219Z,93973.75
2022-09-15T13:38:29.274Z,93940.31
2022-09-15T13:44:01.538Z,93956.13
2022-09-15T13:49:33.427Z,93953.88
2022-09-15T13:54:35.378Z,93925.16
2022-09-15T13:59:37.375Z,93951.56
2022-09-15T14:04:39.402Z,93941.63
2022-09-15T14:09:47.644Z,93906.00
2022-09-15T14:14:58.387Z,93932.84
2022-09-15T14:27:30.060Z,93938.22
2022-09-15T14:32:38.631Z,93934.59
2022-09-15T14:37:40.985Z,93947.31
2022-09-15T14:42:43.543Z,93938.03
2022-09-15T14:47:45.632Z,93901.69
2022-09-15T14:52:53.242Z,93934.59
2022-09-15T14:58:07.888Z,93892.38
2022-09-15T15:03:27.694Z,93917.31
2022-09-15T15:08:41.572Z,93909.72
2022-09-15T15:13:45.004Z,93903.66
2022-09-15T15:18:47.130Z,93884.06
2022-09-15T15:23:49.644Z,93908.31
2022-09-15T15:28:51.858Z,93912.78
2022-09-15T15:33:57.448Z,93911.59
2022-09-15T15:39:32.050Z,93909.63
2022-09-15T15:44:34.293Z,93911.38
2022-09-15T15:49:42.348Z,93900.81
2022-09-15T15:54:52.991Z,93895.22
2022-09-15T15:59:57.634Z,93865.16
2022-09-15T16:05:00.276Z,93895.16
2022-09-15T16:10:02.812Z,93905.03
2022-09-15T16:15:20.279Z,93915.06
2022-09-15T16:20:25.356Z,93912.16
2022-09-15T16:25:45.609Z,93916.34
2022-09-15T16:30:47.757Z,93894.09
2022-09-15T16:43:01.210Z,93937.03
2022-09-15T16:48:03.566Z,93904.63
2022-09-15T16:53:05.725Z,93940.03
2022-09-15T16:58:07.787Z,93924.66
2022-09-15T17:03:11.847Z,93955.66
2022-09-15T17:08:14.218Z,93963.91
2022-09-15T17:13:26.411Z,93966.75
2022-09-15T17:18:31.279Z,93940.97
2022-09-15T17:23:38.431Z,93961.53
2022-09-15T17:28:41.281Z,93959.31
2022-09-15T17:33:43.881Z,93964.06
2022-09-15T17:38:48.512Z,93963.00
2022-09-15T17:43:51.083Z,93957.19
2022-09-15T17:48:53.057Z,93968.13
2022-09-15T17:53:55.409Z,93976.69
2022-09-15T17:58:57.412Z,93978.31
2022-09-15T18:03:59.298Z,93973.31
2022-09-15T18:09:01.201Z,93974.50
2022-09-15T18:14:03.319Z,93938.91
2022-09-15T18:19:05.383Z,93977.59
2022-09-15T18:24:09.578Z,93980.69
2022-09-15T18:29:11.685Z,93986.91
2022-09-15T18:34:13.612Z,93990.00
2022-09-15T18:39:15.836Z,93983.06
2022-09-15T18:44:18.071Z,93986.16
2022-09-15T18:49:19.993Z,93996.22
2022-09-15T18:54:22.094Z,93995.47
2022-09-15T18:59:24.125Z,93974.59
2022-09-15T19:04:31.034Z,94008.66
2022-09-15T19:09:34.356Z,94007.50
2022-09-15T19:22:00.450Z,94031.88
2022-09-15T19:27:06.926Z,94039.63
2022-09-15T19:32:11.963Z,94038.47
2022-09-15T19:37:18.664Z,94048.91
2022-09-15T19:42:21.441Z,94034.59
2022-09-15T19:47:23.511Z,94052.78
2022-09-15T19:52:27.005Z,94051.59
2022-09-15T19:57:29.021Z,94058.94
2022-09-15T20:02:31.999Z,94050.81
2022-09-15T20:07:34.086Z,94052.38
2022-09-15T20:12:36.073Z,94027.94
2022-09-15T20:17:41.841Z,94046.91
2022-09-15T20:22:44.023Z,94078.25
2022-09-15T20:27:47.813Z,94080.50
2022-09-15T20:32:49.874Z,94094.78
2022-09-15T20:37:51.964Z,94083.59
2022-09-15T20:42:54.066Z,94092.81
2022-09-15T20:47:56.361Z,94104.78
2022-09-15T20:52:58.323Z,94079.19
2022-09-15T20:58:00.283Z,94097.44
2022-09-15T21:03:02.292Z,94111.72
2022-09-15T21:08:04.354Z,94109.00
2022-09-15T21:13:07.217Z,94050.16
2022-09-15T21:18:09.223Z,94099.69
2022-09-15T21:23:12.362Z,94083.00
2022-09-15T21:28:14.490Z,94107.72
2022-09-15T21:33:16.606Z,94099.66
2022-09-15T21:38:18.521Z,94081.41
2022-09-15T21:43:20.806Z,94075.19
2022-09-15T21:48:22.692Z,94113.50
2022-09-15T21:53:25.221Z,94115.78
2022-09-15T21:58:28.429Z,94119.97
2022-09-15T22:03:31.322Z,94114.50
2022-09-15T22:08:33.309Z,94114.09
2022-09-15T22:13:37.385Z,94077.69
2022-09-15T22:18:40.676Z,94108.69
2022-09-15T22:23:43.642Z,94104.81
2022-09-15T22:28:46.120Z,94107.09
2022-09-15T22:33:48.476Z,94112.88
2022-09-15T22:38:50.572Z,94109.00
2022-09-15T22:43:52.912Z,94109.75
2022-09-15T22:48:55.503Z,94105.88
2022-09-15T22:53:57.800Z,94097.25
2022-09-15T22:59:00.096Z,94100.22
2022-09-15T23:04:02.720Z,94107.53
2022-09-15T23:09:07.907Z,94113.44
2022-09-15T23:14:15.506Z,94113.44
2022-09-15T23:19:17.727Z,94116.47
2022-09-15T23:24:19.998Z,94112.19
2022-09-15T23:29:23.399Z,94124.09
2022-09-15T23:34:25.496Z,94129.03
2022-09-15T23:39:27.637Z,94118.19
2022-09-15T23:44:29.794Z,94111.91
2022-09-15T23:49:31.937Z,94091.31
2022-09-15T23:54:33.928Z,94116.97
2022-09-15T23:59:37.607Z,94123.16
